createdAt,value
2023-03-01T00:01:49.351Z,32.11
2023-03-01T00:04:17.875Z,32.22
2023-03-01T00:06:49.488Z,31.68
2023-03-01T00:09:17.934Z,31.94
2023-03-01T00:11:46.711Z,32.03
2023-03-01T00:14:17.440Z,32.08
2023-03-01T00:16:46.416Z,32.18
2023-03-01T00:19:18.315Z,31.92
2023-03-01T00:21:47.529Z,31.96
2023-03-01T00:24:16.053Z,32.21
2023-03-01T00:26:44.904Z,32.06
2023-03-01T00:29:13.238Z,31.97
2023-03-01T00:31:41.793Z,31.96
2023-03-01T00:34:10.833Z,32.02
2023-03-01T00:36:39.611Z,31.84
2023-03-01T00:39:13.067Z,32.19
2023-03-01T00:41:42.329Z,32.12
2023-03-01T00:44:10.992Z,31.94
2023-03-01T00:46:39.640Z,31.93
2023-03-01T00:49:08.136Z,32.30
2023-03-01T00:51:36.845Z,32.27
2023-03-01T00:54:05.286Z,32.03
2023-03-01T00:56:34.400Z,32.54
2023-03-01T00:59:03.390Z,32.75
2023-03-01T01:01:32.416Z,32.38
2023-03-01T01:04:03.871Z,32.20
2023-03-01T01:06:45.831Z,32.64
2023-03-01T01:09:19.709Z,32.35
2023-03-01T01:11:51.218Z,32.65
2023-03-01T01:14:19.972Z,32.52
2023-03-01T01:16:48.948Z,32.64
2023-03-01T01:19:17.594Z,32.95
2023-03-01T01:21:46.508Z,32.38
2023-03-01T01:24:15.217Z,32.56
2023-03-01T01:26:44.407Z,32.60
2023-03-01T01:29:13.100Z,32.62
2023-03-01T01:31:42.843Z,32.65
2023-03-01T01:34:17.086Z,32.78
2023-03-01T01:36:50.044Z,32.98
2023-03-01T01:39:18.485Z,32.67
2023-03-01T01:41:47.248Z,32.97
2023-03-01T01:44:22.260Z,32.83
2023-03-01T01:47:06.519Z,32.70
2023-03-01T01:49:38.777Z,32.88
2023-03-01T01:52:28.506Z,32.94
2023-03-01T01:55:08.311Z,33.24
2023-03-01T01:57:46.189Z,32.87
2023-03-01T02:00:21.527Z,33.04
2023-03-01T02:02:53.277Z,33.05
2023-03-01T02:05:28.010Z,32.95
2023-03-01T02:07:57.509Z,33.33
2023-03-01T02:10:25.848Z,32.83
2023-03-01T02:12:54.589Z,32.88
2023-03-01T02:15:24.459Z,33.10
2023-03-01T02:17:53.577Z,33.07
2023-03-01T02:20:24.748Z,32.89
2023-03-01T02:22:53.482Z,33.17
2023-03-01T02:26:07.568Z,33.28
2023-03-01T02:28:38.030Z,33.01
2023-03-01T02:31:26.584Z,32.97
2023-03-01T02:33:55.538Z,33.18
2023-03-01T02:36:31.538Z,33.13
2023-03-01T02:39:01.317Z,33.29
2023-03-01T02:41:32.299Z,33.33
2023-03-01T02:44:01.419Z,33.07
2023-03-01T02:46:31.210Z,33.03
2023-03-01T02:49:00.447Z,32.75
2023-03-01T02:51:36.034Z,33.03
2023-03-01T02:54:30.102Z,33.11
2023-03-01T02:56:58.644Z,33.20
2023-03-01T02:59:32.460Z,33.06
2023-03-01T03:02:02.091Z,32.89
2023-03-01T03:04:30.850Z,33.04
2023-03-01T03:06:59.751Z,32.83
2023-03-01T03:09:29.601Z,32.92
2023-03-01T03:11:58.621Z,33.21
2023-03-01T03:14:27.671Z,33.40
2023-03-01T03:16:56.341Z,32.94
2023-03-01T03:19:25.132Z,32.88
2023-03-01T03:21:53.692Z,33.08
2023-03-01T03:24:22.340Z,32.94
2023-03-01T03:26:50.721Z,33.10
2023-03-01T03:29:19.439Z,33.31
2023-03-01T03:31:47.924Z,33.10
2023-03-01T03:34:19.251Z,33.20
2023-03-01T03:36:47.670Z,33.13
2023-03-01T03:39:16.338Z,33.21
2023-03-01T03:41:44.641Z,33.18
2023-03-01T03:44:13.239Z,33.05
2023-03-01T03:46:41.581Z,33.31
2023-03-01T03:49:10.219Z,33.17
2023-03-01T03:51:38.579Z,33.25
2023-03-01T03:54:07.432Z,33.37
2023-03-01T03:56:36.189Z,33.12
2023-03-01T03:59:04.810Z,33.28
2023-03-01T04:01:33.308Z,33.27
2023-03-01T04:04:05.353Z,33.14
2023-03-01T04:06:33.989Z,33.25
2023-03-01T04:09:03.586Z,33.37
2023-03-01T04:11:32.442Z,33.32
2023-03-01T04:14:01.398Z,33.22
2023-03-01T04:16:30.227Z,33.46
2023-03-01T04:19:01.017Z,33.23
2023-03-01T04:21:29.418Z,33.21
2023-03-01T04:23:58.226Z,33.13
2023-03-01T04:26:26.569Z,33.29
2023-03-01T04:28:55.269Z,33.25
2023-03-01T04:31:23.960Z,33.25
2023-03-01T04:33:54.862Z,33.38
2023-03-01T04:36:28.895Z,33.21
2023-03-01T04:38:57.913Z,33.23
2023-03-01T04:41:26.679Z,33.28
2023-03-01T04:43:55.448Z,33.42
2023-03-01T04:46:23.963Z,33.25
2023-03-01T04:48:52.740Z,33.33
2023-03-01T04:51:21.138Z,33.27
2023-03-01T04:53:50.060Z,33.27
2023-03-01T04:56:24.289Z,33.17
2023-03-01T04:58:55.384Z,33.31
2023-03-01T05:01:23.699Z,33.43
2023-03-01T05:03:52.794Z,33.33
2023-03-01T05:06:22.139Z,33.85
2023-03-01T05:08:50.977Z,33.40
2023-03-01T05:11:19.319Z,33.30
2023-03-01T05:13:48.180Z,33.41
2023-03-01T05:16:18.063Z,33.06
2023-03-01T05:18:47.218Z,33.17
2023-03-01T05:21:17.464Z,32.89
2023-03-01T05:23:48.035Z,32.75
2023-03-01T05:26:34.040Z,32.75
2023-03-01T05:29:02.785Z,32.58
2023-03-01T05:31:32.156Z,32.46
2023-03-01T05:34:00.951Z,32.13
2023-03-01T05:36:29.557Z,32.01
2023-03-01T05:38:58.789Z,31.94
2023-03-01T05:41:27.172Z,32.00
2023-03-01T05:43:55.888Z,31.66
2023-03-01T05:46:25.742Z,31.69
2023-03-01T05:48:54.466Z,31.58
2023-03-01T05:51:23.406Z,31.45
2023-03-01T05:53:52.089Z,31.30
2023-03-01T05:56:23.436Z,31.02
2023-03-01T05:58:52.281Z,31.20
2023-03-01T06:01:20.665Z,31.25
2023-03-01T06:03:49.733Z,31.11
2023-03-01T06:06:18.112Z,30.89
2023-03-01T06:08:46.970Z,30.74
2023-03-01T06:11:15.380Z,30.74
2023-03-01T06:13:45.122Z,30.54
2023-03-01T06:16:14.057Z,30.47
2023-03-01T06:18:42.960Z,30.58
2023-03-01T06:21:11.382Z,30.66
2023-03-01T06:23:39.972Z,30.74
2023-03-01T06:26:08.917Z,31.05
2023-03-01T06:28:37.935Z,30.89
2023-03-01T06:31:09.968Z,30.75
2023-03-01T06:33:38.816Z,30.78
2023-03-01T06:36:08.144Z,31.01
2023-03-01T06:38:36.991Z,30.97
2023-03-01T06:41:05.512Z,31.09
2023-03-01T06:43:34.515Z,31.33
2023-03-01T06:46:08.141Z,31.11
2023-03-01T06:48:36.927Z,31.20
2023-03-01T06:51:05.491Z,31.58
2023-03-01T06:53:34.492Z,31.42
2023-03-01T06:56:02.732Z,31.47
2023-03-01T06:58:31.613Z,31.75
2023-03-01T07:01:00.090Z,31.54
2023-03-01T07:03:28.825Z,31.60
2023-03-01T07:05:57.340Z,31.62
2023-03-01T07:08:26.113Z,31.79
2023-03-01T07:10:58.847Z,31.83
2023-03-01T07:13:27.708Z,31.88
2023-03-01T07:15:56.088Z,32.09
2023-03-01T07:18:25.007Z,32.09
2023-03-01T07:20:53.493Z,31.84
2023-03-01T07:23:22.469Z,31.96
2023-03-01T07:25:56.918Z,31.86
2023-03-01T07:28:25.839Z,32.06
2023-03-01T07:30:54.376Z,32.06
2023-03-01T07:33:23.107Z,32.03
2023-03-01T07:36:01.088Z,31.99
2023-03-01T07:38:30.302Z,32.06
2023-03-01T07:41:03.139Z,32.14
2023-03-01T07:43:32.022Z,32.06
2023-03-01T07:46:02.084Z,32.23
2023-03-01T07:48:31.465Z,32.24
2023-03-01T07:51:05.056Z,32.34
2023-03-01T07:53:35.420Z,32.44
2023-03-01T07:56:12.206Z,32.70
2023-03-01T07:58:43.735Z,33.11
2023-03-01T08:01:15.390Z,33.14
2023-03-01T08:03:44.929Z,33.47
2023-03-01T08:06:15.197Z,33.69
2023-03-01T08:08:44.160Z,33.79
2023-03-01T08:11:13.997Z,33.67
2023-03-01T08:13:43.677Z,33.81
2023-03-01T08:16:14.771Z,33.67
2023-03-01T08:18:44.364Z,34.11
2023-03-01T08:21:15.421Z,34.43
2023-03-01T08:23:44.437Z,34.27
2023-03-01T08:26:19.668Z,34.14
2023-03-01T08:28:49.545Z,34.15
2023-03-01T08:31:40.417Z,34.55
2023-03-01T08:34:12.690Z,34.41
2023-03-01T08:36:43.611Z,34.37
2023-03-01T08:39:14.587Z,34.68
2023-03-01T08:41:43.237Z,34.64
2023-03-01T08:44:13.177Z,34.43
2023-03-01T08:46:42.663Z,34.52
2023-03-01T08:49:15.448Z,34.85
2023-03-01T08:51:44.850Z,34.92
2023-03-01T08:54:19.765Z,34.96
2023-03-01T08:56:48.326Z,35.26
2023-03-01T08:59:18.443Z,34.94
2023-03-01T09:01:47.041Z,34.99
2023-03-01T09:04:16.489Z,35.03
2023-03-01T09:06:44.999Z,34.98
2023-03-01T09:09:18.443Z,34.89
2023-03-01T09:11:47.598Z,34.99
2023-03-01T09:14:16.657Z,34.99
2023-03-01T09:16:45.219Z,35.01
2023-03-01T09:19:14.105Z,35.01
2023-03-01T09:21:42.626Z,35.02
2023-03-01T09:24:15.648Z,35.00
2023-03-01T09:26:48.857Z,35.07
2023-03-01T09:29:19.153Z,34.89
2023-03-01T09:31:47.630Z,34.66
2023-03-01T09:34:20.465Z,34.87
2023-03-01T09:36:48.821Z,34.92
2023-03-01T09:39:19.058Z,34.81
2023-03-01T09:42:05.400Z,34.87
2023-03-01T09:45:07.964Z,34.71
2023-03-01T09:47:37.333Z,34.74
2023-03-01T09:50:18.578Z,34.78
2023-03-01T09:52:52.334Z,34.83
2023-03-01T09:55:29.464Z,34.65
2023-03-01T09:58:22.902Z,34.65
2023-03-01T10:00:51.701Z,34.50
2023-03-01T10:03:38.406Z,34.61
2023-03-01T10:06:34.078Z,34.75
2023-03-01T10:09:18.045Z,34.69
2023-03-01T10:11:49.397Z,35.09
2023-03-01T10:14:38.495Z,34.90
2023-03-01T10:17:36.406Z,34.83
2023-03-01T10:20:48.126Z,35.19
2023-03-01T10:23:16.804Z,35.13
2023-03-01T10:26:25.502Z,34.92
2023-03-01T10:29:03.733Z,35.10
2023-03-01T10:31:52.389Z,34.94
2023-03-01T10:34:28.627Z,34.86
2023-03-01T10:37:11.099Z,35.06
2023-03-01T10:39:56.255Z,34.80
2023-03-01T10:42:32.550Z,34.86
2023-03-01T10:45:35.995Z,34.92
2023-03-01T10:48:14.587Z,35.01
2023-03-01T10:50:46.336Z,34.61
2023-03-01T10:53:35.923Z,34.73
2023-03-01T10:56:14.615Z,34.57
2023-03-01T10:59:04.657Z,34.95
2023-03-01T11:01:36.894Z,34.61
2023-03-01T11:04:08.412Z,34.66
2023-03-01T11:06:43.403Z,34.68
2023-03-01T11:09:25.773Z,34.69
2023-03-01T11:11:59.046Z,34.84
2023-03-01T11:14:31.888Z,34.63
2023-03-01T11:17:16.216Z,34.76
2023-03-01T11:19:54.210Z,35.03
2023-03-01T11:22:29.699Z,34.84
2023-03-01T11:25:09.293Z,34.67
2023-03-01T11:27:43.574Z,34.70
2023-03-01T11:30:28.004Z,34.76
2023-03-01T11:33:13.072Z,34.99
2023-03-01T11:36:08.503Z,34.78
2023-03-01T11:38:37.475Z,34.75
2023-03-01T11:41:19.529Z,35.25
2023-03-01T11:43:55.729Z,35.61
2023-03-01T11:46:33.311Z,35.32
2023-03-01T11:49:26.752Z,35.46
2023-03-01T11:52:15.662Z,36.39
2023-03-01T11:55:30.049Z,37.18
2023-03-01T11:58:26.848Z,37.50
2023-03-01T12:01:25.557Z,38.47
2023-03-01T12:04:24.934Z,40.32
2023-03-01T13:01:16.542Z,42.45
2023-03-01T13:04:28.697Z,42.37
2023-03-01T13:07:12.063Z,42.66
2023-03-01T13:10:33.668Z,42.83
2023-03-01T13:13:26.199Z,42.84
2023-03-01T13:15:55.527Z,42.59
2023-03-01T13:18:24.482Z,44.16
2023-03-01T13:20:58.615Z,43.22
2023-03-01T13:23:37.771Z,43.58
2023-03-01T13:26:26.965Z,43.78
2023-03-01T13:28:58.514Z,43.52
2023-03-01T13:31:27.382Z,43.79
2023-03-01T13:33:57.382Z,43.72
2023-03-01T13:36:30.060Z,43.52
2023-03-01T13:39:04.165Z,43.54
2023-03-01T13:41:44.885Z,43.17
2023-03-01T13:44:40.079Z,43.00
2023-03-01T13:47:09.644Z,42.76
2023-03-01T13:49:59.811Z,42.46
2023-03-01T13:52:55.723Z,42.46
2023-03-01T13:55:43.125Z,42.49
2023-03-01T13:58:22.718Z,42.36
2023-03-01T14:01:04.712Z,41.73
2023-03-01T14:03:35.310Z,42.15
2023-03-01T14:06:15.419Z,42.11
2023-03-01T14:08:47.042Z,42.17
2023-03-01T14:11:26.178Z,41.98
2023-03-01T14:14:19.398Z,41.93
2023-03-01T14:17:24.875Z,42.04
2023-03-01T14:20:21.639Z,41.97
2023-03-01T14:22:53.106Z,42.23
2023-03-01T14:25:31.273Z,42.04
2023-03-01T14:28:14.785Z,42.05
2023-03-01T14:30:57.504Z,42.17
2023-03-01T14:33:42.315Z,42.18
2023-03-01T14:36:12.847Z,43.29
2023-03-01T14:38:46.352Z,42.89
2023-03-01T14:41:26.923Z,43.09
2023-03-01T14:44:08.182Z,42.95
2023-03-01T14:46:39.577Z,43.30
2023-03-01T14:49:16.886Z,43.39
2023-03-01T14:52:03.586Z,43.29
2023-03-01T14:54:45.576Z,42.98
2023-03-01T14:57:23.112Z,43.40
2023-03-01T14:59:57.067Z,43.05
2023-03-01T15:02:29.300Z,43.13
2023-03-01T15:05:01.924Z,43.27
2023-03-01T15:07:35.558Z,43.14
2023-03-01T15:10:06.505Z,43.13
2023-03-01T15:12:40.946Z,43.05
2023-03-01T15:15:48.421Z,42.95
2023-03-01T15:18:23.366Z,42.80
2023-03-01T15:20:51.863Z,42.70
2023-03-01T15:23:28.906Z,42.40
2023-03-01T15:25:57.756Z,42.31
2023-03-01T15:28:44.571Z,42.20
2023-03-01T15:31:24.659Z,42.12
2023-03-01T15:33:53.543Z,41.83
2023-03-01T15:36:44.343Z,42.17
2023-03-01T15:39:38.693Z,42.00
2023-03-01T15:42:13.930Z,41.95
2023-03-01T15:44:48.696Z,42.53
2023-03-01T15:47:51.336Z,41.99
2023-03-01T15:50:28.941Z,41.90
2023-03-01T15:52:58.015Z,41.94
2023-03-01T15:55:30.810Z,41.83
2023-03-01T15:58:24.077Z,41.87
2023-03-01T16:01:01.879Z,42.04
2023-03-01T16:03:31.033Z,41.95
2023-03-01T16:05:59.927Z,41.75
2023-03-01T16:08:28.550Z,41.52
2023-03-01T16:10:57.513Z,41.86
2023-03-01T16:13:28.338Z,41.56
2023-03-01T16:15:58.753Z,41.33
2023-03-01T16:18:27.253Z,41.32
2023-03-01T16:20:56.519Z,41.26
2023-03-01T16:23:26.262Z,41.08
2023-03-01T16:25:55.088Z,40.99
2023-03-01T16:28:23.570Z,40.79
2023-03-01T16:30:52.631Z,40.72
2023-03-01T16:33:28.995Z,40.56
2023-03-01T16:36:11.172Z,40.32
2023-03-01T16:38:39.904Z,40.00
2023-03-01T16:41:17.369Z,39.88
2023-03-01T16:43:47.766Z,39.70
2023-03-01T16:46:29.729Z,39.39
2023-03-01T16:48:58.421Z,39.55
2023-03-01T16:51:27.234Z,39.16
2023-03-01T16:53:55.863Z,39.04
2023-03-01T16:56:24.806Z,39.06
2023-03-01T16:58:53.321Z,38.75
2023-03-01T17:01:25.658Z,38.50
2023-03-01T17:03:54.420Z,38.62
2023-03-01T17:06:24.905Z,38.55
2023-03-01T17:08:53.448Z,38.38
2023-03-01T17:11:22.519Z,38.49
2023-03-01T17:13:51.246Z,38.14
2023-03-01T17:16:21.354Z,38.22
2023-03-01T17:18:50.308Z,38.30
2023-03-01T17:21:19.184Z,38.21
2023-03-01T17:23:48.278Z,38.73
2023-03-01T17:26:17.775Z,38.97
2023-03-01T17:28:52.631Z,38.93
2023-03-01T17:31:22.051Z,38.98
2023-03-01T17:33:51.420Z,39.19
2023-03-01T17:36:20.289Z,39.30
2023-03-01T17:38:50.054Z,39.36
2023-03-01T17:41:19.720Z,39.37
2023-03-01T17:43:48.470Z,39.55
2023-03-01T17:46:17.627Z,39.70
2023-03-01T17:48:46.260Z,39.70
2023-03-01T17:51:15.251Z,39.71
2023-03-01T17:53:43.912Z,39.87
2023-03-01T17:56:12.992Z,39.79
2023-03-01T17:58:41.598Z,40.04
2023-03-01T18:01:13.009Z,40.06
2023-03-01T18:03:42.354Z,40.15
2023-03-01T18:06:17.877Z,40.23
2023-03-01T18:08:46.820Z,39.81
2023-03-01T18:11:16.009Z,39.97
2023-03-01T18:13:45.572Z,39.77
2023-03-01T18:16:20.441Z,39.61
2023-03-01T18:18:53.726Z,39.69
2023-03-01T18:21:23.821Z,39.33
2023-03-01T18:23:52.752Z,39.06
2023-03-01T18:26:23.020Z,39.01
2023-03-01T18:28:52.562Z,38.83
2023-03-01T18:31:22.924Z,38.69
2023-03-01T18:33:55.273Z,38.71
2023-03-01T18:36:30.420Z,38.74
2023-03-01T18:38:59.348Z,38.68
2023-03-01T18:41:28.622Z,38.84
2023-03-01T18:43:57.728Z,38.73
2023-03-01T18:46:27.261Z,38.77
2023-03-01T18:48:56.003Z,38.87
2023-03-01T18:51:27.323Z,38.86
2023-03-01T18:53:58.835Z,39.00
2023-03-01T18:56:30.077Z,39.01
2023-03-01T18:59:00.570Z,38.88
2023-03-01T19:01:30.918Z,38.96
2023-03-01T19:03:59.890Z,39.04
2023-03-01T19:06:34.794Z,39.24
2023-03-01T19:09:04.045Z,39.42
2023-03-01T19:11:33.826Z,39.16
2023-03-01T19:14:02.521Z,39.42
2023-03-01T19:16:32.936Z,39.58
2023-03-01T19:19:03.410Z,39.72
2023-03-01T19:21:32.868Z,39.77
2023-03-01T19:24:02.735Z,39.87
2023-03-01T19:26:32.396Z,39.94
2023-03-01T19:29:01.485Z,40.24
2023-03-01T19:31:31.220Z,40.13
2023-03-01T19:34:10.315Z,40.37
2023-03-01T19:36:42.926Z,40.68
2023-03-01T19:39:13.994Z,40.68
2023-03-01T19:41:43.847Z,40.77
2023-03-01T19:44:12.866Z,41.12
2023-03-01T19:46:42.073Z,41.30
2023-03-01T19:49:10.692Z,41.50
2023-03-01T19:51:39.674Z,41.58
2023-03-01T19:54:10.042Z,41.90
2023-03-01T19:56:40.887Z,41.95
2023-03-01T19:59:09.497Z,41.94
2023-03-01T20:01:42.646Z,41.75
2023-03-01T20:04:11.606Z,41.95
2023-03-01T20:06:41.797Z,41.65
2023-03-01T20:09:21.540Z,41.51
2023-03-01T20:11:51.782Z,41.10
2023-03-01T20:14:23.600Z,40.95
2023-03-01T20:16:53.113Z,40.73
2023-03-01T20:19:22.058Z,40.58
2023-03-01T20:21:51.918Z,40.28
2023-03-01T20:24:21.488Z,40.05
2023-03-01T20:26:51.600Z,40.23
2023-03-01T20:29:20.375Z,40.05
2023-03-01T20:31:50.188Z,40.04
2023-03-01T20:34:20.425Z,40.09
2023-03-01T20:36:50.310Z,40.36
2023-03-01T20:39:20.013Z,40.32
2023-03-01T20:41:50.443Z,40.53
2023-03-01T20:44:20.220Z,40.44
2023-03-01T20:46:52.014Z,40.55
2023-03-01T20:49:22.941Z,40.68
2023-03-01T20:51:55.951Z,40.63
2023-03-01T20:54:25.880Z,40.67
2023-03-01T20:56:55.755Z,40.66
2023-03-01T20:59:24.795Z,40.73
2023-03-01T21:01:54.277Z,40.88
2023-03-01T21:04:23.432Z,40.88
2023-03-01T21:06:53.486Z,40.83
2023-03-01T21:09:23.682Z,40.89
2023-03-01T21:11:52.726Z,40.92
2023-03-01T21:14:22.048Z,41.10
2023-03-01T21:16:51.322Z,40.95
2023-03-01T21:19:23.505Z,41.06
2023-03-01T21:21:53.777Z,41.16
2023-03-01T21:24:22.358Z,41.10
2023-03-01T21:26:51.146Z,41.23
2023-03-01T21:29:19.665Z,41.35
2023-03-01T21:31:48.555Z,41.35
2023-03-01T21:34:17.090Z,41.13
2023-03-01T21:36:46.021Z,41.15
2023-03-01T21:39:15.020Z,41.16
2023-03-01T21:41:43.819Z,41.24
2023-03-01T21:44:12.300Z,41.33
2023-03-01T21:46:41.534Z,41.49
2023-03-01T21:49:11.265Z,41.38
2023-03-01T21:51:40.256Z,41.44
2023-03-01T21:54:10.261Z,41.35
2023-03-01T21:56:39.813Z,41.53
2023-03-01T21:59:16.486Z,41.66
2023-03-01T22:01:45.549Z,41.68
2023-03-01T22:04:14.301Z,41.55
2023-03-01T22:06:45.280Z,41.64
2023-03-01T22:09:19.661Z,41.67
2023-03-01T22:12:02.818Z,41.76
2023-03-01T22:14:31.798Z,41.60
2023-03-01T22:17:00.715Z,41.65
2023-03-01T22:19:29.336Z,41.76
2023-03-01T22:21:58.150Z,41.66
2023-03-01T22:24:26.798Z,41.91
2023-03-01T22:26:55.734Z,41.94
2023-03-01T22:29:29.244Z,41.97
2023-03-01T22:31:58.709Z,41.90
2023-03-01T22:34:27.476Z,41.87
2023-03-01T22:36:56.693Z,42.10
2023-03-01T22:39:25.303Z,42.19
2023-03-01T22:41:54.653Z,42.10
2023-03-01T22:44:23.718Z,42.16
2023-03-01T22:46:52.683Z,41.68
2023-03-01T22:49:21.579Z,42.01
2023-03-01T22:51:50.682Z,42.05
2023-03-01T22:54:19.672Z,41.88
2023-03-01T22:56:48.716Z,41.93
2023-03-01T22:59:23.306Z,41.45
2023-03-01T23:01:53.008Z,41.60
2023-03-01T23:04:22.086Z,41.65
2023-03-01T23:06:50.975Z,41.75
2023-03-01T23:09:26.649Z,41.58
2023-03-01T23:11:55.754Z,41.52
2023-03-01T23:14:25.423Z,41.48
2023-03-01T23:16:54.398Z,41.39
2023-03-01T23:19:23.230Z,41.63
2023-03-01T23:21:54.568Z,41.65
2023-03-01T23:24:24.292Z,41.53
2023-03-01T23:26:55.863Z,41.54
2023-03-01T23:29:24.360Z,41.55
2023-03-01T23:31:56.106Z,41.58
2023-03-01T23:34:25.746Z,41.65
2023-03-01T23:36:55.076Z,41.62
2023-03-01T23:39:23.688Z,41.43
2023-03-01T23:41:52.454Z,41.44
2023-03-01T23:44:21.430Z,41.29
2023-03-01T23:46:50.819Z,41.57
2023-03-01T23:49:20.758Z,41.37
2023-03-01T23:51:49.743Z,41.31
2023-03-01T23:54:21.028Z,41.78
2023-03-01T23:56:50.300Z,41.41
2023-03-01T23:59:22.115Z,41.64
